Time;durP1;ratioP1;P1;durP2;ratioP2;P2;SDS_P1;SDS_P2;PMS_P1;PMS_P2;Temp;Humidity;BMP_temperature;BMP_pressure;BME280_temperature;BME280_humidity;BME280_pressure;Samples;Min_cycle;Max_cycle;Signal;HPM_P1;HPM_P2
2024/01/31 00:01:21;;;;;;;2.10;1.60;;;;;;;;;;6135813;28;20051;-85
2024/01/31 00:04:23;;;;;;;;;;;;;;;;;;6121895;28;20053;-85
2024/01/31 00:07:25;;;;;;;3.45;2.03;;;;;;;;;;6143122;28;19930;-84
2024/01/31 00:10:27;;;;;;;2.20;1.70;;;;;;;;;;6131373;28;20099;-84
2024/01/31 00:13:29;;;;;;;2.78;2.13;;;;;;;;;;6142413;28;20050;-84
2024/01/31 00:16:31;;;;;;;3.17;1.70;;;;;;;;;;6142919;28;20179;-85
2024/01/31 00:19:32;;;;;;;2.88;1.80;;;;;;;;;;6139785;28;20126;-84
2024/01/31 00:22:35;;;;;;;4.13;1.65;;;;;;;;;;6150742;28;20139;-85
2024/01/31 00:25:36;;;;;;;4.38;2.00;;;;;;;;;;6156208;28;20161;-85
2024/01/31 00:28:38;;;;;;;2.40;1.63;;;;;;;;;;6137557;28;20788;-85
2024/01/31 00:31:40;;;;;;;8.30;1.75;;;;;;;;;;6137522;28;20051;-85
2024/01/31 00:34:42;;;;;;;2.45;1.52;;;;;;;;;;6124718;28;20078;-85
2024/01/31 00:37:44;;;;;;;2.55;2.20;;;;;;;;;;6141885;28;20046;-86
2024/01/31 00:40:46;;;;;;;2.83;1.85;;;;;;;;;;6138970;28;20514;-85
2024/01/31 00:43:49;;;;;;;1.92;1.52;;;;;;;;;;6136417;28;20121;-85
2024/01/31 00:46:51;;;;;;;;;;;;;;;;;;6149472;28;20047;-85
2024/01/31 00:49:52;;;;;;;1.90;1.60;;;;;;;;;;6138238;28;19925;-85
2024/01/31 00:52:54;;;;;;;9.45;3.22;;;;;;;;;;6137984;28;20051;-85
2024/01/31 00:55:56;;;;;;;3.58;1.90;;;;;;;;;;6137528;28;20572;-85
2024/01/31 00:59:00;;;;;;;2.45;1.80;;;;;;;;;;6117499;28;20043;-84
2024/01/31 01:02:02;;;;;;;5.18;2.63;;;;;;;;;;6133382;28;20047;-83
2024/01/31 01:05:04;;;;;;;7.53;3.20;;;;;;;;;;6129854;28;20510;-84
2024/01/31 01:08:06;;;;;;;7.80;3.45;;;;;;;;;;6154157;28;20451;-85
2024/01/31 01:11:08;;;;;;;8.35;4.05;;;;;;;;;;6128204;28;20035;-84
2024/01/31 01:14:10;;;;;;;7.72;3.78;;;;;;;;;;6117154;28;21269;-84
2024/01/31 01:17:12;;;;;;;7.07;3.40;;;;;;;;;;6120427;28;20051;-84
2024/01/31 01:20:14;;;;;;;6.60;3.38;;;;;;;;;;6153212;28;20144;-84
2024/01/31 01:23:16;;;;;;;6.13;3.35;;;;;;;;;;6136424;28;20506;-84
2024/01/31 01:26:17;;;;;;;5.70;3.40;;;;;;;;;;6134794;28;20522;-84
2024/01/31 01:29:19;;;;;;;4.75;2.50;;;;;;;;;;6139381;28;20051;-84
2024/01/31 01:32:21;;;;;;;3.13;2.15;;;;;;;;;;6122734;28;20050;-85
2024/01/31 01:35:23;;;;;;;5.65;2.50;;;;;;;;;;6144609;28;20047;-84
2024/01/31 01:38:25;;;;;;;4.20;2.53;;;;;;;;;;6168786;28;20058;-84
2024/01/31 01:41:26;;;;;;;4.07;2.65;;;;;;;;;;6155691;28;20437;-84
2024/01/31 01:44:32;;;;;;;6.20;2.70;;;;;;;;;;6123598;28;20419;-84
2024/01/31 01:47:36;;;;;;;5.35;3.00;;;;;;;;;;6150608;28;20055;-85
2024/01/31 01:50:38;;;;;;;6.68;3.35;;;;;;;;;;6135330;28;20054;-85
2024/01/31 01:53:40;;;;;;;7.07;3.20;;;;;;;;;;6130093;28;20047;-84
2024/01/31 01:56:45;;;;;;;9.90;3.83;;;;;;;;;;6137210;28;20089;-84
2024/01/31 01:59:46;;;;;;;7.03;3.63;;;;;;;;;;6125587;28;20047;-85
2024/01/31 02:02:49;;;;;;;9.20;4.40;;;;;;;;;;6130587;28;20038;-84
2024/01/31 02:05:51;;;;;;;18.20;5.90;;;;;;;;;;6135381;28;20887;-84
2024/01/31 02:08:53;;;;;;;13.82;5.45;;;;;;;;;;6146292;28;20040;-84
2024/01/31 02:11:55;;;;;;;10.18;4.30;;;;;;;;;;6130019;28;20048;-84
2024/01/31 02:14:57;;;;;;;7.47;3.67;;;;;;;;;;6136895;28;20051;-83
2024/01/31 02:17:59;;;;;;;9.18;4.07;;;;;;;;;;6140790;28;20058;-84
2024/01/31 02:21:01;;;;;;;9.45;3.95;;;;;;;;;;6164847;28;20807;-84
2024/01/31 02:24:03;;;;;;;4.95;3.17;;;;;;;;;;6155997;28;20039;-83
2024/01/31 02:27:04;;;;;;;7.25;3.58;;;;;;;;;;6138282;28;20102;-84
2024/01/31 02:30:09;;;;;;;8.68;4.63;;;;;;;;;;6141253;28;20093;-84
2024/01/31 02:33:11;;;;;;;6.03;4.18;;;;;;;;;;6114383;28;20047;-84
2024/01/31 02:36:13;;;;;;;5.63;3.17;;;;;;;;;;6140944;28;20427;-83
2024/01/31 02:39:15;;;;;;;5.95;3.85;;;;;;;;;;6155298;28;20043;-84
2024/01/31 02:42:17;;;;;;;8.68;4.10;;;;;;;;;;6154605;28;20060;-84
2024/01/31 02:45:19;;;;;;;6.22;3.83;;;;;;;;;;6136776;28;20078;-83
2024/01/31 02:48:21;;;;;;;8.18;3.67;;;;;;;;;;6138051;28;20051;-85
2024/01/31 02:51:22;;;;;;;10.18;4.43;;;;;;;;;;6140225;28;20126;-84
2024/01/31 02:54:24;;;;;;;8.90;4.28;;;;;;;;;;6137940;28;20055;-84
2024/01/31 02:57:26;;;;;;;15.05;6.40;;;;;;;;;;6152150;28;20080;-84
2024/01/31 03:00:27;;;;;;;5.95;3.65;;;;;;;;;;6137145;28;20061;-85
2024/01/31 03:03:29;;;;;;;7.20;4.07;;;;;;;;;;6120924;28;20058;-85
2024/01/31 03:06:32;;;;;;;5.72;3.78;;;;;;;;;;6138637;28;20044;-84
2024/01/31 03:09:33;;;;;;;6.72;3.75;;;;;;;;;;6137697;28;20130;-84
2024/01/31 03:12:35;;;;;;;6.53;3.90;;;;;;;;;;6113549;28;20058;-84
2024/01/31 03:15:37;;;;;;;9.30;4.32;;;;;;;;;;6142388;28;20047;-84
2024/01/31 03:18:39;;;;;;;9.07;4.35;;;;;;;;;;6137729;28;20048;-83
2024/01/31 03:21:41;;;;;;;10.10;4.18;;;;;;;;;;6156980;28;20051;-83
2024/01/31 03:24:43;;;;;;;9.60;4.82;;;;;;;;;;6137305;28;20399;-84
2024/01/31 03:27:45;;;;;;;11.05;4.28;;;;;;;;;;6150820;28;20051;-84
2024/01/31 03:30:47;;;;;;;9.98;4.57;;;;;;;;;;6152574;28;20473;-83
2024/01/31 03:33:48;;;;;;;10.98;4.72;;;;;;;;;;6140226;28;20043;-84
2024/01/31 03:36:50;;;;;;;10.00;5.05;;;;;;;;;;6153188;28;20423;-84
2024/01/31 03:39:52;;;;;;;8.73;4.30;;;;;;;;;;6141250;28;20039;-85
2024/01/31 03:42:54;;;;;;;9.23;4.25;;;;;;;;;;6150568;28;20054;-84
2024/01/31 03:45:55;;;;;;;9.25;4.65;;;;;;;;;;6146819;28;20521;-84
2024/01/31 03:48:57;;;;;;;9.18;4.70;;;;;;;;;;6146390;28;20055;-84
2024/01/31 03:52:00;;;;;;;10.57;4.70;;;;;;;;;;6150328;28;20035;-84
2024/01/31 03:55:02;;;;;;;9.95;4.63;;;;;;;;;;6142189;28;20144;-85
2024/01/31 03:58:04;;;;;;;9.30;4.43;;;;;;;;;;6144441;28;20458;-85
2024/01/31 04:01:07;;;;;;;9.07;4.10;;;;;;;;;;6143327;28;20055;-84
2024/01/31 04:04:08;;;;;;;10.90;4.70;;;;;;;;;;6157892;28;20787;-84
2024/01/31 04:07:10;;;;;;;7.15;3.20;;;;;;;;;;6126837;28;20066;-85
2024/01/31 04:10:12;;;;;;;7.75;3.55;;;;;;;;;;6150624;28;20074;-84
2024/01/31 04:13:14;;;;;;;7.53;3.80;;;;;;;;;;6127520;28;20426;-85
2024/01/31 04:16:16;;;;;;;8.65;3.00;;;;;;;;;;6146878;28;20274;-84
2024/01/31 04:19:18;;;;;;;7.30;4.07;;;;;;;;;;6150079;28;20051;-84
2024/01/31 04:22:20;;;;;;;6.57;3.22;;;;;;;;;;6156676;28;20043;-84
2024/01/31 04:25:22;;;;;;;5.97;3.30;;;;;;;;;;6155146;28;20575;-84
2024/01/31 04:28:24;;;;;;;7.53;3.42;;;;;;;;;;6143882;28;20047;-84
2024/01/31 04:31:27;;;;;;;7.83;3.53;;;;;;;;;;6129969;28;20582;-84
2024/01/31 04:34:29;;;;;;;5.93;3.20;;;;;;;;;;6130839;28;20515;-85
2024/01/31 04:37:31;;;;;;;6.32;3.63;;;;;;;;;;6143126;28;20127;-84
2024/01/31 04:40:33;;;;;;;6.65;3.30;;;;;;;;;;6124964;28;20134;-84
2024/01/31 04:43:35;;;;;;;6.43;3.28;;;;;;;;;;6135547;28;20074;-83
2024/01/31 04:46:37;;;;;;;6.30;2.97;;;;;;;;;;6140696;28;20134;-84
2024/01/31 04:49:39;;;;;;;7.57;3.50;;;;;;;;;;6127677;28;20054;-83
2024/01/31 04:52:42;;;;;;;9.43;5.30;;;;;;;;;;6139064;28;20541;-85
2024/01/31 04:55:44;;;;;;;7.63;3.78;;;;;;;;;;6133823;28;20051;-84
2024/01/31 04:58:47;;;;;;;8.32;4.65;;;;;;;;;;6137956;28;20062;-84
2024/01/31 05:01:49;;;;;;;7.90;3.97;;;;;;;;;;6146745;28;20047;-86
2024/01/31 05:04:51;;;;;;;7.40;3.70;;;;;;;;;;6148839;28;20426;-85
2024/01/31 05:07:53;;;;;;;6.97;3.65;;;;;;;;;;6147084;28;20043;-85
2024/01/31 05:10:55;;;;;;;7.72;3.75;;;;;;;;;;6126094;28;20047;-85
2024/01/31 05:13:57;;;;;;;6.72;3.47;;;;;;;;;;6138870;28;20047;-84
2024/01/31 05:16:59;;;;;;;7.35;3.85;;;;;;;;;;6158620;28;20058;-83
2024/01/31 05:20:00;;;;;;;11.35;5.68;;;;;;;;;;6147908;28;20043;-85
2024/01/31 05:23:03;;;;;;;9.55;4.57;;;;;;;;;;6145467;28;20495;-85
2024/01/31 05:26:08;;;;;;;9.32;4.07;;;;;;;;;;6139001;28;20078;-85
2024/01/31 05:29:10;;;;;;;9.57;4.32;;;;;;;;;;6126467;28;20043;-85
2024/01/31 05:32:12;;;;;;;9.43;4.00;;;;;;;;;;6147840;28;20046;-85
2024/01/31 05:35:14;;;;;;;6.93;3.33;;;;;;;;;;6159196;28;20418;-85
2024/01/31 05:38:16;;;;;;;10.88;5.07;;;;;;;;;;6142079;28;20047;-84
2024/01/31 05:41:17;;;;;;;8.13;3.65;;;;;;;;;;6145602;28;20050;-84
2024/01/31 05:44:21;;;;;;;7.68;3.90;;;;;;;;;;6149619;28;20201;-84
2024/01/31 05:47:23;;;;;;;7.65;3.40;;;;;;;;;;6134030;28;20055;-84
2024/01/31 05:50:24;;;;;;;6.65;3.75;;;;;;;;;;6125160;28;20046;-84
2024/01/31 05:53:27;;;;;;;8.43;4.70;;;;;;;;;;6134649;28;20048;-84
2024/01/31 05:56:29;;;;;;;7.13;3.80;;;;;;;;;;6132751;28;20051;-84
2024/01/31 05:59:30;;;;;;;7.70;3.15;;;;;;;;;;6112859;28;20059;-83
2024/01/31 06:02:32;;;;;;;6.78;3.05;;;;;;;;;;6140395;28;20047;-83
2024/01/31 06:05:35;;;;;;;5.25;3.63;;;;;;;;;;6135947;28;20047;-83
2024/01/31 06:08:37;;;;;;;8.25;4.22;;;;;;;;;;6117858;28;20054;-84
2024/01/31 06:11:39;;;;;;;13.13;5.43;;;;;;;;;;6118379;28;20051;-84
2024/01/31 06:14:42;;;;;;;14.82;5.97;;;;;;;;;;6125114;28;20060;-84
2024/01/31 06:17:44;;;;;;;16.02;5.65;;;;;;;;;;6153212;28;20047;-83
2024/01/31 06:20:50;;;;;;;13.52;6.25;;;;;;;;;;6131695;28;20490;-83
2024/01/31 06:23:52;;;;;;;13.55;5.93;;;;;;;;;;6124451;28;20047;-83
2024/01/31 06:26:56;;;;;;;8.75;4.80;;;;;;;;;;6135447;28;20130;-83
2024/01/31 06:30:00;;;;;;;14.75;7.05;;;;;;;;;;6129279;28;20043;-83
2024/01/31 06:33:07;;;;;;;15.02;7.97;;;;;;;;;;6137935;28;20035;-83
2024/01/31 06:36:09;;;;;;;12.10;5.97;;;;;;;;;;6145372;28;20047;-84
2024/01/31 06:39:11;;;;;;;12.60;6.53;;;;;;;;;;6135727;28;20058;-84
2024/01/31 06:42:13;;;;;;;12.98;6.38;;;;;;;;;;6140714;28;20414;-84
2024/01/31 06:45:15;;;;;;;12.77;6.47;;;;;;;;;;6149697;28;20047;-84
2024/01/31 06:48:19;;;;;;;16.50;7.32;;;;;;;;;;6129857;28;20059;-84
2024/01/31 06:51:21;;;;;;;16.48;7.70;;;;;;;;;;6139279;28;20058;-87
2024/01/31 06:54:23;;;;;;;26.38;9.70;;;;;;;;;;6136731;28;20085;-86
2024/01/31 06:57:25;;;;;;;12.10;6.80;;;;;;;;;;6130251;28;20047;-87
2024/01/31 07:00:27;;;;;;;10.35;5.82;;;;;;;;;;6139808;28;20054;-86
2024/01/31 07:03:30;;;;;;;8.75;4.82;;;;;;;;;;6122401;28;20062;-86
2024/01/31 07:06:32;;;;;;;;;;;;;;;;;;6098334;28;20087;-86
2024/01/31 07:09:34;;;;;;;9.18;5.15;;;;;;;;;;6143902;28;20412;-85
2024/01/31 07:12:39;;;;;;;9.13;4.97;;;;;;;;;;6140407;28;20044;-87
2024/01/31 07:15:41;;;;;;;7.95;5.00;;;;;;;;;;6136075;28;20043;-85
2024/01/31 07:18:44;;;;;;;7.60;4.93;;;;;;;;;;6137322;28;20047;-86
2024/01/31 07:21:49;;;;;;;11.95;6.57;;;;;;;;;;6130869;28;20074;-86
2024/01/31 07:24:50;;;;;;;16.35;7.50;;;;;;;;;;6138470;28;20052;-86
2024/01/31 07:27:52;;;;;;;12.40;6.13;;;;;;;;;;6128072;28;20054;-87
2024/01/31 07:30:58;;;;;;;11.55;5.30;;;;;;;;;;6132354;28;20053;-87
2024/01/31 07:34:01;;;;;;;10.25;5.68;;;;;;;;;;6133192;28;20051;-87
2024/01/31 07:37:04;;;;;;;8.30;4.35;;;;;;;;;;6122788;28;20039;-86
2024/01/31 07:40:09;;;;;;;6.15;4.05;;;;;;;;;;6128946;28;20055;-86
2024/01/31 07:43:11;;;;;;;11.07;6.38;;;;;;;;;;6149202;28;20499;-86
2024/01/31 07:46:13;;;;;;;9.93;4.75;;;;;;;;;;6111841;28;20059;-86
2024/01/31 07:49:15;;;;;;;10.32;5.63;;;;;;;;;;6138142;28;20442;-86
2024/01/31 07:52:17;;;;;;;10.55;5.82;;;;;;;;;;6130906;28;20061;-86
2024/01/31 07:55:21;;;;;;;;;;;;;;;;;;6142502;28;20811;-85
2024/01/31 07:58:23;;;;;;;9.18;5.07;;;;;;;;;;6153903;28;21320;-86
2024/01/31 08:01:25;;;;;;;11.43;6.13;;;;;;;;;;6134177;28;20042;-85
2024/01/31 08:04:29;;;;;;;10.10;5.05;;;;;;;;;;6126942;28;20086;-86
2024/01/31 08:07:31;;;;;;;7.68;4.65;;;;;;;;;;6100964;28;20050;-87
2024/01/31 08:10:35;;;;;;;7.85;4.82;;;;;;;;;;6108554;28;20055;-86
2024/01/31 08:13:39;;;;;;;8.10;4.68;;;;;;;;;;6112190;28;20054;-86
2024/01/31 08:16:41;;;;;;;9.20;4.45;;;;;;;;;;6149017;28;20097;-86
2024/01/31 08:19:43;;;;;;;18.48;7.68;;;;;;;;;;6147797;28;20594;-86
2024/01/31 08:22:45;;;;;;;18.92;9.38;;;;;;;;;;6114281;28;20118;-86
2024/01/31 08:25:47;;;;;;;21.35;11.48;;;;;;;;;;6137343;28;20055;-86
2024/01/31 08:28:51;;;;;;;19.60;9.55;;;;;;;;;;6107960;28;20136;-86
2024/01/31 08:32:07;;;;;;;13.68;8.68;;;;;;;;;;6144855;28;20055;-88
2024/01/31 08:35:10;;;;;;;17.75;13.27;;;;;;;;;;6137382;28;20043;-86
2024/01/31 08:38:12;;;;;;;13.35;9.50;;;;;;;;;;6146894;28;20047;-87
2024/01/31 08:41:14;;;;;;;15.23;9.88;;;;;;;;;;6135335;28;20079;-88
2024/01/31 08:44:20;;;;;;;15.60;9.02;;;;;;;;;;6111663;28;20526;-87
2024/01/31 08:47:22;;;;;;;17.73;8.02;;;;;;;;;;6130139;28;20122;-88
2024/01/31 08:50:27;;;;;;;10.80;5.70;;;;;;;;;;6104448;28;20701;-88
2024/01/31 08:53:29;;;;;;;10.05;5.78;;;;;;;;;;6134975;28;20128;-87
2024/01/31 08:56:31;;;;;;;9.98;4.57;;;;;;;;;;6124408;28;20543;-86
2024/01/31 08:59:33;;;;;;;10.50;4.97;;;;;;;;;;6101379;28;20050;-88
2024/01/31 09:02:35;;;;;;;9.30;5.32;;;;;;;;;;6133407;28;20050;-87
2024/01/31 09:05:36;;;;;;;15.77;8.05;;;;;;;;;;6123019;28;20062;-88
2024/01/31 09:08:39;;;;;;;14.88;7.68;;;;;;;;;;6104659;28;20055;-87
2024/01/31 09:11:43;;;;;;;16.03;8.30;;;;;;;;;;6109728;28;20050;-87
2024/01/31 09:14:45;;;;;;;16.65;9.82;;;;;;;;;;6165284;28;20043;-88
2024/01/31 09:17:51;;;;;;;16.02;10.40;;;;;;;;;;6148938;28;20178;-87
2024/01/31 09:20:53;;;;;;;17.77;10.18;;;;;;;;;;6132293;28;20038;-87
2024/01/31 09:23:58;;;;;;;16.23;9.90;;;;;;;;;;6111955;28;20047;-89
2024/01/31 09:27:00;;;;;;;31.33;15.63;;;;;;;;;;6111065;28;20054;-86
2024/01/31 09:30:04;;;;;;;21.00;10.27;;;;;;;;;;6123664;28;20057;-88
2024/01/31 09:33:06;;;;;;;9.27;5.82;;;;;;;;;;6130282;28;20074;-87
2024/01/31 09:36:08;;;;;;;9.23;5.40;;;;;;;;;;6129203;28;20122;-86
2024/01/31 09:39:10;;;;;;;10.57;5.28;;;;;;;;;;6120248;28;20046;-88
2024/01/31 09:42:12;;;;;;;35.63;16.42;;;;;;;;;;6130397;28;20039;-87
2024/01/31 09:45:19;;;;;;;8.38;5.05;;;;;;;;;;6117614;28;20043;-88
2024/01/31 09:48:21;;;;;;;9.07;3.90;;;;;;;;;;6154783;28;20074;-87
2024/01/31 09:51:24;;;;;;;6.10;3.75;;;;;;;;;;6122446;28;20043;-87
2024/01/31 09:54:29;;;;;;;6.95;3.15;;;;;;;;;;6128791;28;20390;-88
2024/01/31 09:57:31;;;;;;;27.50;13.85;;;;;;;;;;6115209;28;20074;-87
2024/01/31 10:00:33;;;;;;;34.00;15.25;;;;;;;;;;6116013;28;20048;-88
2024/01/31 10:03:35;;;;;;;7.00;4.40;;;;;;;;;;6151460;28;20549;-88
2024/01/31 10:06:37;;;;;;;7.70;4.30;;;;;;;;;;6119404;28;20160;-88
2024/01/31 10:09:41;;;;;;;7.03;4.10;;;;;;;;;;6131760;28;20352;-88
2024/01/31 10:12:43;;;;;;;5.85;3.10;;;;;;;;;;6150149;28;20047;-88
2024/01/31 10:15:45;;;;;;;6.75;3.47;;;;;;;;;;6141448;28;20043;-88
2024/01/31 10:18:47;;;;;;;6.70;2.78;;;;;;;;;;6117620;28;20047;-88
2024/01/31 10:21:51;;;;;;;5.10;3.45;;;;;;;;;;6137450;28;20054;-88
2024/01/31 10:24:53;;;;;;;6.35;3.63;;;;;;;;;;6143831;28;20387;-88
2024/01/31 10:27:55;;;;;;;9.18;4.93;;;;;;;;;;6108546;28;20039;-87
2024/01/31 10:30:57;;;;;;;10.05;4.43;;;;;;;;;;6116081;28;20050;-87
2024/01/31 10:34:00;;;;;;;9.07;4.57;;;;;;;;;;6119475;28;20043;-87
2024/01/31 10:37:03;;;;;;;;;;;;;;;;;;6108991;28;20415;-87
2024/01/31 10:40:30;;;;;;;6.90;3.95;;;;;;;;;;6133738;28;19930;-87
2024/01/31 10:43:34;;;;;;;7.25;3.67;;;;;;;;;;6122683;28;20039;-88
2024/01/31 10:46:37;;;;;;;8.25;4.20;;;;;;;;;;6111608;28;20050;-89
2024/01/31 10:49:39;;;;;;;10.25;4.72;;;;;;;;;;6146214;28;20046;-89
2024/01/31 10:52:46;;;;;;;11.75;5.40;;;;;;;;;;6118238;28;20045;-87
2024/01/31 10:55:51;;;;;;;11.57;4.82;;;;;;;;;;6137115;28;20046;-88
2024/01/31 10:58:58;;;;;;;9.68;4.70;;;;;;;;;;6131793;28;20046;-88
2024/01/31 11:02:04;;;;;;;10.18;5.30;;;;;;;;;;6128201;28;20260;-88
2024/01/31 11:05:14;;;;;;;9.50;4.50;;;;;;;;;;6125312;28;20570;-87
2024/01/31 11:08:18;;;;;;;8.13;4.35;;;;;;;;;;6123483;28;20133;-88
2024/01/31 11:11:20;;;;;;;8.38;3.70;;;;;;;;;;6117089;28;20055;-87
2024/01/31 11:14:32;;;;;;;30.45;14.25;;;;;;;;;;6149086;28;20050;-89
2024/01/31 11:17:38;;;;;;;7.97;4.30;;;;;;;;;;6133383;28;20054;-88
2024/01/31 11:20:49;;;;;;;7.57;3.72;;;;;;;;;;6128130;28;20043;-89
2024/01/31 11:23:51;;;;;;;6.55;4.10;;;;;;;;;;6143491;28;20094;-88
2024/01/31 11:26:53;;;;;;;9.52;5.60;;;;;;;;;;6155652;28;20051;-89
2024/01/31 11:29:55;;;;;;;11.60;6.10;;;;;;;;;;6135085;28;20047;-88
2024/01/31 11:33:01;;;;;;;11.38;6.20;;;;;;;;;;6141008;28;20043;-88
2024/01/31 11:36:06;;;;;;;5.35;3.13;;;;;;;;;;6132383;28;20051;-90
2024/01/31 11:39:12;;;;;;;4.32;3.15;;;;;;;;;;6122929;28;20510;-89
2024/01/31 11:42:15;;;;;;;7.03;3.58;;;;;;;;;;6123787;28;20074;-88
2024/01/31 11:45:17;;;;;;;7.10;4.18;;;;;;;;;;6149313;28;20070;-88
2024/01/31 11:48:21;;;;;;;9.43;5.10;;;;;;;;;;6122996;28;20416;-88
2024/01/31 11:51:23;;;;;;;6.18;4.25;;;;;;;;;;6135798;28;20047;-86
2024/01/31 11:54:27;;;;;;;6.10;4.43;;;;;;;;;;6151938;28;21869;-87
2024/01/31 11:57:30;;;;;;;7.13;4.43;;;;;;;;;;6152703;28;20044;-87
2024/01/31 12:00:35;;;;;;;7.20;4.65;;;;;;;;;;6158922;28;20055;-87
2024/01/31 12:03:37;;;;;;;6.75;4.20;;;;;;;;;;6122905;28;20074;-88
2024/01/31 12:06:39;;;;;;;7.53;3.88;;;;;;;;;;6134940;28;20055;-87
2024/01/31 12:09:41;;;;;;;8.27;4.05;;;;;;;;;;6131273;28;20059;-87
2024/01/31 12:12:43;;;;;;;4.90;3.35;;;;;;;;;;6140276;28;20174;-87
2024/01/31 12:15:46;;;;;;;5.70;3.58;;;;;;;;;;6111459;28;20055;-86
2024/01/31 12:18:59;;;;;;;4.22;3.15;;;;;;;;;;6132928;28;20474;-88
2024/01/31 12:22:04;;;;;;;7.03;3.30;;;;;;;;;;6136583;28;20509;-87
2024/01/31 12:25:09;;;;;;;5.25;3.33;;;;;;;;;;6141977;28;20070;-88
2024/01/31 12:28:11;;;;;;;5.75;3.10;;;;;;;;;;6103894;28;20050;-87
2024/01/31 12:31:13;;;;;;;6.13;3.22;;;;;;;;;;6137933;28;20047;-87
2024/01/31 12:34:15;;;;;;;5.22;3.35;;;;;;;;;;6128347;28;20103;-86
2024/01/31 12:37:17;;;;;;;5.07;2.95;;;;;;;;;;6157117;28;20426;-87
2024/01/31 12:40:20;;;;;;;6.40;3.43;;;;;;;;;;6159173;28;20114;-88
2024/01/31 12:43:24;;;;;;;6.28;3.60;;;;;;;;;;6130587;28;20137;-87
2024/01/31 12:46:26;;;;;;;7.93;3.43;;;;;;;;;;6121695;28;20047;-89
2024/01/31 12:49:31;;;;;;;5.72;3.65;;;;;;;;;;6130098;28;20530;-87
2024/01/31 12:52:34;;;;;;;6.78;3.88;;;;;;;;;;6142242;28;20042;-88
2024/01/31 12:55:35;;;;;;;5.75;3.47;;;;;;;;;;6142746;28;20688;-88
2024/01/31 12:58:37;;;;;;;8.10;4.05;;;;;;;;;;6129882;28;20542;-87
2024/01/31 13:01:42;;;;;;;6.28;4.05;;;;;;;;;;6129973;28;20050;-88
2024/01/31 13:04:44;;;;;;;6.68;3.33;;;;;;;;;;6138795;28;20069;-86
2024/01/31 13:07:46;;;;;;;9.87;3.90;;;;;;;;;;6147798;28;20042;-87
2024/01/31 13:10:49;;;;;;;5.70;3.33;;;;;;;;;;6114111;28;20574;-87
2024/01/31 13:13:51;;;;;;;4.22;2.70;;;;;;;;;;6131269;28;21054;-87
2024/01/31 13:16:53;;;;;;;6.97;3.40;;;;;;;;;;6142334;28;20166;-87
2024/01/31 13:20:03;;;;;;;5.13;3.35;;;;;;;;;;6123447;28;20042;-90
2024/01/31 13:23:06;;;;;;;5.75;3.00;;;;;;;;;;6125862;28;20054;-86
2024/01/31 13:26:08;;;;;;;2.50;2.30;;;;;;;;;;6140827;28;20437;-86
2024/01/31 13:29:10;;;;;;;3.50;2.63;;;;;;;;;;6148935;28;20047;-87
2024/01/31 13:32:12;;;;;;;5.05;2.90;;;;;;;;;;6120161;28;20518;-87
2024/01/31 13:35:14;;;;;;;3.42;2.30;;;;;;;;;;6132962;28;20051;-87
2024/01/31 13:38:18;;;;;;;3.38;2.38;;;;;;;;;;6117477;28;20074;-87
2024/01/31 13:41:24;;;;;;;3.55;2.60;;;;;;;;;;6153285;28;20047;-87
2024/01/31 13:44:28;;;;;;;3.67;2.15;;;;;;;;;;6115623;28;20051;-87
2024/01/31 13:47:30;;;;;;;4.63;2.00;;;;;;;;;;6137689;28;20043;-87
2024/01/31 13:50:33;;;;;;;3.15;2.10;;;;;;;;;;6113656;28;20158;-87
2024/01/31 13:53:35;;;;;;;2.20;1.90;;;;;;;;;;6131054;28;20050;-87
2024/01/31 13:56:38;;;;;;;3.78;2.30;;;;;;;;;;6138686;28;20047;-87
2024/01/31 13:59:40;;;;;;;5.28;3.38;;;;;;;;;;6127923;28;20133;-87
2024/01/31 14:02:44;;;;;;;8.18;3.88;;;;;;;;;;6120209;28;20051;-88
2024/01/31 14:05:48;;;;;;;4.95;2.78;;;;;;;;;;6107206;28;20051;-88
2024/01/31 14:08:54;;;;;;;4.35;3.00;;;;;;;;;;6113513;28;20051;-88
2024/01/31 14:11:56;;;;;;;5.25;3.20;;;;;;;;;;6144128;28;20297;-88
2024/01/31 14:15:02;;;;;;;4.78;2.35;;;;;;;;;;6130038;28;20043;-88
2024/01/31 14:18:04;;;;;;;3.23;2.43;;;;;;;;;;6125253;28;20418;-88
2024/01/31 14:21:13;;;;;;;3.10;2.28;;;;;;;;;;6132761;28;20397;-86
2024/01/31 14:24:15;;;;;;;4.00;2.38;;;;;;;;;;6134695;28;20055;-86
2024/01/31 14:27:21;;;;;;;3.08;2.08;;;;;;;;;;6126925;28;20047;-86
2024/01/31 14:30:22;;;;;;;7.15;3.83;;;;;;;;;;6129082;28;20054;-86
2024/01/31 14:33:25;;;;;;;5.38;2.80;;;;;;;;;;6134222;28;20093;-84
2024/01/31 14:36:26;;;;;;;4.18;2.45;;;;;;;;;;6140702;28;20067;-85
2024/01/31 14:39:28;;;;;;;3.67;2.40;;;;;;;;;;6134108;28;20122;-85
2024/01/31 14:42:31;;;;;;;2.80;2.20;;;;;;;;;;6131462;28;20130;-87
2024/01/31 14:45:33;;;;;;;3.83;2.75;;;;;;;;;;6156585;28;20097;-86
2024/01/31 14:48:35;;;;;;;3.15;2.15;;;;;;;;;;6135979;28;20506;-87
2024/01/31 14:51:38;;;;;;;3.45;2.33;;;;;;;;;;6131870;28;20047;-87
2024/01/31 14:54:40;;;;;;;3.70;2.05;;;;;;;;;;6130383;28;20091;-87
2024/01/31 14:57:42;;;;;;;4.30;2.67;;;;;;;;;;6130882;28;20055;-86
2024/01/31 15:00:44;;;;;;;3.22;2.42;;;;;;;;;;6129762;28;20055;-86
2024/01/31 15:03:46;;;;;;;3.28;2.28;;;;;;;;;;6143247;28;20071;-87
2024/01/31 15:06:48;;;;;;;6.15;2.53;;;;;;;;;;6106929;28;20130;-85
2024/01/31 15:09:50;;;;;;;3.25;2.08;;;;;;;;;;6127756;28;20529;-87
2024/01/31 15:12:53;;;;;;;6.03;2.70;;;;;;;;;;6128654;28;20126;-87
2024/01/31 15:15:56;;;;;;;5.03;3.25;;;;;;;;;;6096128;28;20126;-87
2024/01/31 15:18:59;;;;;;;4.78;2.92;;;;;;;;;;6129338;28;20070;-87
2024/01/31 15:22:01;;;;;;;4.80;2.50;;;;;;;;;;6116746;28;20048;-85
2024/01/31 15:25:03;;;;;;;6.75;3.22;;;;;;;;;;6141259;28;20101;-88
2024/01/31 15:28:05;;;;;;;3.88;2.83;;;;;;;;;;6125296;28;20058;-85
2024/01/31 15:31:10;;;;;;;4.85;2.95;;;;;;;;;;6149934;28;20058;-85
2024/01/31 15:34:12;;;;;;;3.58;2.47;;;;;;;;;;6142588;28;20054;-85
2024/01/31 15:37:14;;;;;;;6.22;3.00;;;;;;;;;;6153967;28;20047;-86
2024/01/31 15:40:16;;;;;;;30.92;10.77;;;;;;;;;;6156881;28;20051;-86
2024/01/31 15:43:18;;;;;;;3.50;2.60;;;;;;;;;;6151366;28;20083;-86
2024/01/31 15:46:21;;;;;;;5.38;2.20;;;;;;;;;;6127694;28;20161;-87
2024/01/31 15:49:28;;;;;;;4.90;2.80;;;;;;;;;;6128867;28;20046;-89
2024/01/31 15:52:30;;;;;;;3.60;2.28;;;;;;;;;;6139134;28;20050;-87
2024/01/31 15:55:32;;;;;;;2.72;2.10;;;;;;;;;;6141822;28;20131;-87
2024/01/31 15:58:36;;;;;;;3.30;2.30;;;;;;;;;;6121155;28;20051;-86
2024/01/31 16:01:37;;;;;;;3.58;2.08;;;;;;;;;;6130906;28;20410;-85
2024/01/31 16:04:39;;;;;;;4.30;2.05;;;;;;;;;;6132476;28;20053;-86
2024/01/31 16:07:42;;;;;;;3.03;1.80;;;;;;;;;;6131006;28;20521;-86
2024/01/31 16:10:44;;;;;;;2.92;1.80;;;;;;;;;;6137357;28;20418;-85
2024/01/31 16:13:46;;;;;;;2.70;1.60;;;;;;;;;;6147968;28;20043;-85
2024/01/31 16:16:48;;;;;;;3.78;1.88;;;;;;;;;;6117612;28;20043;-84
2024/01/31 16:19:50;;;;;;;2.92;1.83;;;;;;;;;;6158396;28;20081;-85
2024/01/31 16:22:52;;;;;;;3.47;1.98;;;;;;;;;;6149606;28;20588;-87
2024/01/31 16:25:54;;;;;;;3.20;2.13;;;;;;;;;;6147719;28;20047;-86
2024/01/31 16:28:57;;;;;;;3.05;2.20;;;;;;;;;;6149029;28;20043;-89
2024/01/31 16:32:01;;;;;;;5.93;2.00;;;;;;;;;;6141684;28;20046;-87
2024/01/31 16:35:03;;;;;;;11.07;4.40;;;;;;;;;;6145735;28;20129;-88
2024/01/31 16:38:07;;;;;;;5.63;2.30;;;;;;;;;;6138582;28;20047;-87
2024/01/31 16:41:15;;;;;;;;;;;;;;;;;;6145818;28;20165;-86
2024/01/31 16:44:18;;;;;;;2.97;2.17;;;;;;;;;;6103446;28;20513;-85
2024/01/31 16:47:20;;;;;;;4.17;2.03;;;;;;;;;;6135641;28;20061;-86
2024/01/31 16:50:23;;;;;;;3.85;1.98;;;;;;;;;;6141491;28;20513;-88
2024/01/31 16:53:28;;;;;;;5.00;2.53;;;;;;;;;;6129335;28;20130;-86
2024/01/31 16:56:32;;;;;;;6.65;2.85;;;;;;;;;;6156466;28;20039;-89
2024/01/31 16:59:34;;;;;;;3.83;2.08;;;;;;;;;;6134464;28;20515;-87
2024/01/31 17:02:36;;;;;;;4.78;2.60;;;;;;;;;;6134869;28;20079;-86
2024/01/31 17:05:38;;;;;;;4.35;2.08;;;;;;;;;;6130852;28;20546;-90
2024/01/31 17:08:41;;;;;;;2.63;1.92;;;;;;;;;;6129099;28;20047;-88
2024/01/31 17:11:43;;;;;;;3.28;2.03;;;;;;;;;;6143750;28;20070;-88
2024/01/31 17:14:45;;;;;;;2.47;1.73;;;;;;;;;;6115451;28;20415;-89
2024/01/31 17:17:48;;;;;;;;;;;;;;;;;;6131448;28;20079;-89
2024/01/31 17:20:51;;;;;;;16.40;8.13;;;;;;;;;;6114626;28;19952;-88
2024/01/31 17:23:53;;;;;;;14.38;8.65;;;;;;;;;;6114915;28;20529;-87
2024/01/31 17:26:56;;;;;;;16.55;8.65;;;;;;;;;;6129833;28;20038;-88
2024/01/31 17:30:01;;;;;;;8.43;4.10;;;;;;;;;;6109078;28;20139;-88
2024/01/31 17:33:04;;;;;;;7.80;3.50;;;;;;;;;;6134780;28;20548;-88
2024/01/31 17:36:13;;;;;;;25.73;14.02;;;;;;;;;;6115527;28;20043;-88
2024/01/31 17:39:18;;;;;;;43.40;19.48;;;;;;;;;;6097523;28;20057;-88
2024/01/31 17:42:20;;;;;;;15.73;6.13;;;;;;;;;;6108125;28;20063;-89
2024/01/31 17:45:24;;;;;;;12.13;4.90;;;;;;;;;;6076496;28;20994;-89
2024/01/31 17:48:26;;;;;;;7.55;4.05;;;;;;;;;;6093353;28;20051;-90
2024/01/31 17:51:32;;;;;;;3.92;2.85;;;;;;;;;;6103278;28;20122;-88
2024/01/31 17:54:39;;;;;;;33.88;14.80;;;;;;;;;;6100667;28;20070;-88
2024/01/31 17:57:46;;;;;;;22.92;10.82;;;;;;;;;;6125028;28;20082;-88
2024/01/31 18:00:49;;;;;;;16.70;7.68;;;;;;;;;;6117618;28;20664;-88
2024/01/31 18:03:51;;;;;;;19.65;9.45;;;;;;;;;;6122930;28;20050;-89
2024/01/31 18:06:55;;;;;;;23.75;9.75;;;;;;;;;;6109030;28;20102;-92
2024/01/31 18:09:57;;;;;;;19.25;10.27;;;;;;;;;;6124929;28;20074;-86
2024/01/31 18:12:59;;;;;;;13.48;5.70;;;;;;;;;;6098756;28;20128;-89